createdAt,value
2018-08-25T00:00:44.137Z,0
2018-08-25T00:01:52.774Z,0
2018-08-25T00:03:01.422Z,0
2018-08-25T00:04:10.334Z,0
2018-08-25T00:05:18.978Z,0
2018-08-25T00:06:27.620Z,0
2018-08-25T00:07:36.270Z,0
2018-08-25T00:08:44.914Z,0
2018-08-25T00:09:53.562Z,0
2018-08-25T00:11:02.209Z,0
2018-08-25T00:12:10.848Z,0
2018-08-25T00:13:19.495Z,0
2018-08-25T00:14:28.405Z,0
2018-08-25T00:15:37.055Z,0
2018-08-25T00:16:45.698Z,0
2018-08-25T00:17:54.343Z,0
2018-08-25T00:19:02.988Z,0
2018-08-25T00:20:11.635Z,0
2018-08-25T00:21:20.274Z,0
2018-08-25T00:22:28.918Z,0
2018-08-25T00:23:37.563Z,0
2018-08-25T00:24:46.212Z,0
2018-08-25T00:25:54.855Z,0
2018-08-25T00:27:03.763Z,0
2018-08-25T00:28:12.405Z,0
2018-08-25T00:29:21.048Z,0
2018-08-25T00:30:29.697Z,0
2018-08-25T00:31:38.341Z,0
2018-08-25T00:32:46.990Z,0
2018-08-25T00:33:55.630Z,0
2018-08-25T00:35:04.547Z,0
2018-08-25T00:36:13.191Z,0
2018-08-25T00:37:21.840Z,0
2018-08-25T00:38:30.479Z,0
2018-08-25T00:39:39.129Z,0
2018-08-25T00:40:47.774Z,0
2018-08-25T00:41:56.956Z,0
2018-08-25T00:43:05.597Z,0
2018-08-25T00:44:14.246Z,0
2018-08-25T00:45:22.890Z,0
2018-08-25T00:46:32.064Z,0
2018-08-25T00:47:41.044Z,0
2018-08-25T00:48:49.962Z,0
2018-08-25T00:49:58.878Z,0
2018-08-25T00:51:07.523Z,0
2018-08-25T00:52:16.428Z,0
2018-08-25T00:53:25.069Z,0
2018-08-25T00:54:33.714Z,0
2018-08-25T00:55:42.359Z,0
2018-08-25T00:56:51.009Z,0
2018-08-25T00:57:59.644Z,0
2018-08-25T00:59:08.289Z,0
2018-08-25T01:00:16.932Z,0
2018-08-25T01:01:25.585Z,0
2018-08-25T01:02:34.229Z,0
2018-08-25T01:03:42.866Z,0
2018-08-25T01:04:51.509Z,0
2018-08-25T01:06:00.154Z,0
2018-08-25T01:07:08.814Z,0
2018-08-25T01:08:17.448Z,0
2018-08-25T01:09:26.096Z,0
2018-08-25T01:10:34.738Z,0
2018-08-25T01:11:43.392Z,0
2018-08-25T01:12:52.030Z,0
2018-08-25T01:14:00.681Z,0
2018-08-25T01:15:09.319Z,0
2018-08-25T01:16:17.977Z,0
2018-08-25T01:17:26.625Z,0
2018-08-25T01:18:35.273Z,0
2018-08-25T01:19:43.910Z,0
2018-08-25T01:20:52.554Z,0
2018-08-25T01:22:01.202Z,0
2018-08-25T01:23:09.849Z,0
2018-08-25T01:24:18.501Z,0
2018-08-25T01:25:27.142Z,0
2018-08-25T01:26:35.792Z,0
2018-08-25T01:27:44.432Z,0
2018-08-25T01:28:53.085Z,0
2018-08-25T01:30:01.720Z,0
2018-08-25T01:31:10.373Z,0
2018-08-25T01:32:19.018Z,0
2018-08-25T01:33:27.936Z,0
2018-08-25T01:34:36.576Z,0
2018-08-25T01:35:45.221Z,0
2018-08-25T01:36:53.900Z,0
2018-08-25T01:38:02.517Z,0
2018-08-25T01:39:11.425Z,0
2018-08-25T01:40:20.067Z,0
2018-08-25T01:41:29.233Z,0
2018-08-25T01:42:37.874Z,0
2018-08-25T01:43:46.530Z,0
2018-08-25T01:44:55.170Z,0
2018-08-25T01:46:03.818Z,0
2018-08-25T01:47:12.716Z,0
2018-08-25T01:48:21.373Z,0
2018-08-25T01:49:30.016Z,0
2018-08-25T01:50:38.664Z,0
2018-08-25T01:51:47.299Z,0
2018-08-25T01:52:55.955Z,0
2018-08-25T01:54:04.854Z,0
2018-08-25T01:55:13.758Z,0
2018-08-25T01:56:22.413Z,0
2018-08-25T01:57:31.053Z,0
2018-08-25T01:58:39.952Z,0
2018-08-25T01:59:48.593Z,0
2018-08-25T02:00:57.503Z,0
2018-08-25T02:02:06.415Z,0
2018-08-25T02:03:15.056Z,0
2018-08-25T02:04:23.961Z,0
2018-08-25T02:05:32.594Z,0
2018-08-25T02:06:41.514Z,0
2018-08-25T02:07:50.153Z,0
2018-08-25T02:08:58.801Z,0
2018-08-25T02:10:07.438Z,0
2018-08-25T02:11:16.090Z,0
2018-08-25T02:12:24.733Z,0
2018-08-25T02:13:33.383Z,0
2018-08-25T02:14:42.282Z,0
2018-08-25T02:15:51.196Z,0
2018-08-25T02:16:59.845Z,0
2018-08-25T02:18:08.492Z,0
2018-08-25T02:19:17.138Z,0
2018-08-25T02:20:25.776Z,0
2018-08-25T02:21:34.423Z,0
2018-08-25T02:22:43.062Z,0
2018-08-25T02:23:51.715Z,0
2018-08-25T02:25:00.612Z,0
2018-08-25T02:26:09.262Z,0
2018-08-25T02:27:17.908Z,0
2018-08-25T02:28:26.982Z,0
2018-08-25T02:29:35.618Z,0
2018-08-25T02:30:44.782Z,0
2018-08-25T02:31:53.424Z,0
2018-08-25T02:33:02.077Z,0
2018-08-25T02:34:10.716Z,0
2018-08-25T02:35:19.620Z,0
2018-08-25T02:36:28.265Z,0
2018-08-25T02:37:36.907Z,0
2018-08-25T02:38:45.631Z,0
2018-08-25T02:39:54.206Z,0
2018-08-25T02:41:02.851Z,0
2018-08-25T02:42:11.486Z,0
2018-08-25T02:43:20.146Z,0
2018-08-25T02:44:28.784Z,0
2018-08-25T02:45:37.431Z,0
2018-08-25T02:46:46.066Z,0
2018-08-25T02:47:54.721Z,0
2018-08-25T02:49:03.361Z,0
2018-08-25T02:50:12.007Z,0
2018-08-25T02:51:20.641Z,0
2018-08-25T02:52:29.288Z,0
2018-08-25T02:53:37.936Z,0
2018-08-25T02:54:46.590Z,0
2018-08-25T02:55:55.231Z,0
2018-08-25T02:57:03.871Z,0
2018-08-25T02:58:12.785Z,0
2018-08-25T02:59:21.696Z,0
2018-08-25T03:00:30.359Z,0
2018-08-25T03:01:38.987Z,0
2018-08-25T03:02:47.636Z,0
2018-08-25T03:03:56.280Z,0
2018-08-25T03:05:05.451Z,0
2018-08-25T03:06:14.371Z,0
2018-08-25T03:07:23.018Z,0
2018-08-25T03:08:31.660Z,0
2018-08-25T03:09:40.309Z,0
2018-08-25T03:10:49.223Z,0
2018-08-25T03:11:57.868Z,0
2018-08-25T03:13:06.520Z,0
2018-08-25T03:14:15.429Z,0
2018-08-25T03:15:24.075Z,0
2018-08-25T03:16:32.985Z,0
2018-08-25T03:17:41.625Z,0
2018-08-25T03:18:50.266Z,0
2018-08-25T03:19:58.916Z,0
2018-08-25T03:21:07.561Z,0
2018-08-25T03:22:16.204Z,0
2018-08-25T03:23:24.847Z,0
2018-08-25T03:24:33.494Z,0
2018-08-25T03:25:42.137Z,0
2018-08-25T03:26:50.783Z,0
2018-08-25T03:27:59.426Z,0
2018-08-25T03:29:08.074Z,0
2018-08-25T03:30:17.504Z,0
2018-08-25T03:31:26.159Z,0
2018-08-25T03:32:35.079Z,0
2018-08-25T03:33:43.718Z,0
2018-08-25T03:34:52.362Z,0
2018-08-25T03:36:01.274Z,0
2018-08-25T03:37:09.918Z,0
2018-08-25T03:38:18.556Z,0
2018-08-25T03:39:27.200Z,0
2018-08-25T03:40:35.844Z,0
2018-08-25T03:41:44.492Z,0
2018-08-25T03:42:53.132Z,0
2018-08-25T03:44:02.047Z,0
2018-08-25T03:45:10.683Z,0
2018-08-25T03:46:19.334Z,0
2018-08-25T03:47:28.238Z,0
2018-08-25T03:48:36.881Z,0
2018-08-25T03:49:45.527Z,0
2018-08-25T03:50:54.166Z,0
2018-08-25T03:52:03.075Z,0
2018-08-25T03:53:11.714Z,0
2018-08-25T03:54:20.355Z,0
2018-08-25T03:55:29.087Z,0
2018-08-25T03:56:37.639Z,0
2018-08-25T03:57:46.280Z,0
2018-08-25T03:58:54.923Z,0
2018-08-25T04:00:03.567Z,0
2018-08-25T04:01:12.209Z,0
2018-08-25T04:02:20.849Z,0
2018-08-25T04:03:29.759Z,0
2018-08-25T04:04:38.399Z,0
2018-08-25T04:05:47.046Z,0
2018-08-25T04:06:55.957Z,0
2018-08-25T04:08:04.871Z,0
2018-08-25T04:09:13.515Z,0
2018-08-25T04:10:22.155Z,0
2018-08-25T04:11:31.076Z,0
2018-08-25T04:12:39.716Z,0
2018-08-25T04:13:48.364Z,0
2018-08-25T04:14:57.113Z,0
2018-08-25T04:16:05.911Z,0
2018-08-25T04:17:14.554Z,0
2018-08-25T04:18:23.205Z,0
2018-08-25T04:19:31.840Z,0
2018-08-25T04:20:40.488Z,0
2018-08-25T04:21:49.129Z,0
2018-08-25T04:22:57.774Z,0
2018-08-25T04:24:06.414Z,0
2018-08-25T04:25:15.057Z,0
2018-08-25T04:26:23.695Z,0
2018-08-25T04:27:32.336Z,0
2018-08-25T04:28:40.983Z,0
2018-08-25T04:29:49.628Z,0
2018-08-25T04:30:58.267Z,0
2018-08-25T04:32:06.906Z,0
2018-08-25T04:33:15.581Z,0
2018-08-25T04:34:24.482Z,0
2018-08-25T04:35:33.660Z,5
2018-08-25T04:36:42.298Z,5
2018-08-25T04:37:50.948Z,5
2018-08-25T04:38:59.592Z,5
2018-08-25T04:40:08.501Z,5
2018-08-25T04:41:17.195Z,5
2018-08-25T04:42:25.787Z,5
2018-08-25T04:43:34.442Z,5
2018-08-25T04:44:43.084Z,5
2018-08-25T04:45:51.730Z,5
2018-08-25T04:47:00.369Z,5
2018-08-25T04:48:09.020Z,10
2018-08-25T04:49:17.663Z,10
2018-08-25T04:50:26.311Z,10
2018-08-25T04:51:35.207Z,15
2018-08-25T04:52:43.854Z,15
2018-08-25T04:53:52.490Z,15
2018-08-25T04:55:01.147Z,15
2018-08-25T04:56:09.784Z,15
2018-08-25T04:57:18.429Z,15
2018-08-25T04:58:27.068Z,15
2018-08-25T04:59:35.727Z,15
2018-08-25T05:00:44.633Z,20
2018-08-25T05:01:53.662Z,20
2018-08-25T05:03:02.246Z,20
2018-08-25T05:04:10.887Z,20
2018-08-25T05:05:19.538Z,20
2018-08-25T05:06:28.179Z,20
2018-08-25T05:07:36.907Z,20
2018-08-25T05:08:45.461Z,15
2018-08-25T05:09:54.115Z,15
2018-08-25T05:11:02.752Z,15
2018-08-25T05:12:11.401Z,10
2018-08-25T05:13:20.038Z,10
2018-08-25T05:14:28.690Z,10
2018-08-25T05:15:37.333Z,15
2018-08-25T05:16:45.978Z,10
2018-08-25T05:17:54.607Z,10
2018-08-25T05:19:03.252Z,5
2018-08-25T05:20:11.898Z,5
2018-08-25T05:21:20.545Z,10
2018-08-25T05:22:29.188Z,15
2018-08-25T05:23:37.823Z,15
2018-08-25T05:24:46.475Z,15
2018-08-25T05:25:55.114Z,10
2018-08-25T05:27:03.765Z,10
2018-08-25T05:28:12.401Z,15
2018-08-25T05:29:21.052Z,15
2018-08-25T05:30:29.690Z,15
2018-08-25T05:31:38.349Z,10
2018-08-25T05:32:46.985Z,5
2018-08-25T05:33:55.639Z,10
2018-08-25T05:35:04.542Z,15
2018-08-25T05:36:13.193Z,15
2018-08-25T05:37:22.096Z,20
2018-08-25T05:38:31.254Z,25
2018-08-25T05:39:39.896Z,30
2018-08-25T05:40:48.540Z,25
2018-08-25T05:41:57.200Z,30
2018-08-25T05:43:05.839Z,30
2018-08-25T05:44:14.932Z,30
2018-08-25T05:45:23.797Z,20
2018-08-25T05:46:32.716Z,25
2018-08-25T05:47:41.352Z,30
2018-08-25T05:48:50.262Z,30
2018-08-25T05:49:58.909Z,40
2018-08-25T05:51:07.813Z,50
2018-08-25T05:52:16.458Z,55
2018-08-25T05:53:25.100Z,55
2018-08-25T05:54:33.751Z,40
2018-08-25T05:55:42.393Z,30
2018-08-25T05:56:51.034Z,30
2018-08-25T05:57:59.676Z,35
2018-08-25T05:59:08.839Z,40
2018-08-25T06:00:17.496Z,45
2018-08-25T06:01:26.142Z,50
2018-08-25T06:02:34.787Z,45
2018-08-25T06:03:43.422Z,35
2018-08-25T06:04:52.336Z,35
2018-08-25T06:06:00.978Z,40
2018-08-25T06:07:09.629Z,45
2018-08-25T06:08:18.255Z,35
2018-08-25T06:09:26.905Z,40
2018-08-25T06:10:35.813Z,45
2018-08-25T06:11:44.457Z,55
2018-08-25T06:12:53.090Z,45
2018-08-25T06:14:01.735Z,45
2018-08-25T06:15:10.386Z,35
2018-08-25T06:16:19.035Z,45
2018-08-25T06:17:27.682Z,65
2018-08-25T06:18:36.839Z,80
2018-08-25T06:19:45.494Z,90
2018-08-25T06:20:54.662Z,90
2018-08-25T06:22:03.312Z,120
2018-08-25T06:23:11.948Z,120
2018-08-25T06:24:20.595Z,140
2018-08-25T06:25:29.238Z,145
2018-08-25T06:26:37.889Z,140
2018-08-25T06:27:46.526Z,175
2018-08-25T06:28:55.437Z,155
2018-08-25T06:30:04.136Z,125
2018-08-25T06:31:12.734Z,180
2018-08-25T06:32:21.376Z,180
2018-08-25T06:33:30.015Z,165
2018-08-25T06:34:38.657Z,165
2018-08-25T06:35:47.310Z,135
2018-08-25T06:36:55.963Z,125
2018-08-25T06:38:04.919Z,120
2018-08-25T06:39:13.566Z,160
2018-08-25T06:40:22.470Z,110
2018-08-25T06:41:31.122Z,130
2018-08-25T06:42:40.168Z,115
2018-08-25T06:43:48.749Z,80
2018-08-25T06:44:57.384Z,55
2018-08-25T06:46:06.038Z,50
2018-08-25T06:47:14.689Z,60
2018-08-25T06:48:23.332Z,55
2018-08-25T06:49:31.970Z,45
2018-08-25T06:50:40.885Z,55
2018-08-25T06:51:49.525Z,80
2018-08-25T06:52:58.172Z,80
2018-08-25T06:54:06.814Z,90
2018-08-25T06:55:15.715Z,135
2018-08-25T06:56:24.364Z,150
2018-08-25T06:57:33.006Z,165
2018-08-25T06:58:41.660Z,215
2018-08-25T06:59:50.561Z,220
2018-08-25T07:00:59.472Z,135
2018-08-25T07:02:08.116Z,95
2018-08-25T07:03:16.767Z,65
2018-08-25T07:04:25.671Z,70
2018-08-25T07:05:34.313Z,75
2018-08-25T07:06:42.955Z,75
2018-08-25T07:07:51.604Z,80
2018-08-25T07:09:00.245Z,95
2018-08-25T07:10:09.152Z,95
2018-08-25T07:11:18.055Z,85
2018-08-25T07:12:26.697Z,120
2018-08-25T07:13:35.610Z,140
2018-08-25T07:14:44.255Z,165
2018-08-25T07:15:52.898Z,160
2018-08-25T07:17:01.540Z,160
2018-08-25T07:18:10.187Z,165
2018-08-25T07:19:18.830Z,185
2018-08-25T07:20:27.472Z,215
2018-08-25T07:21:36.116Z,220
2018-08-25T07:22:44.766Z,205
2018-08-25T07:23:53.409Z,165
2018-08-25T07:25:02.055Z,150
2018-08-25T07:26:10.745Z,155
2018-08-25T07:27:19.346Z,170
2018-08-25T07:28:27.989Z,185
2018-08-25T07:29:36.636Z,180
2018-08-25T07:30:45.281Z,195
2018-08-25T07:31:53.951Z,185
2018-08-25T07:33:02.571Z,195
2018-08-25T07:34:11.209Z,240
2018-08-25T07:35:19.858Z,210
2018-08-25T07:36:28.498Z,155
2018-08-25T07:37:37.143Z,165
2018-08-25T07:38:45.789Z,180
2018-08-25T07:39:54.437Z,170
2018-08-25T07:41:03.077Z,170
2018-08-25T07:42:11.988Z,160
2018-08-25T07:43:20.895Z,130
2018-08-25T07:44:29.542Z,155
2018-08-25T07:45:38.186Z,160
2018-08-25T07:46:46.836Z,200
2018-08-25T07:47:55.472Z,260
2018-08-25T07:49:04.385Z,230
2018-08-25T07:50:13.307Z,235
2018-08-25T07:51:21.946Z,240
2018-08-25T07:52:30.596Z,260
2018-08-25T07:53:39.239Z,280
2018-08-25T07:54:48.420Z,255
2018-08-25T07:55:57.060Z,200
2018-08-25T07:57:05.975Z,130
2018-08-25T07:58:14.868Z,85
2018-08-25T07:59:23.526Z,95
2018-08-25T08:00:32.167Z,90
2018-08-25T08:01:40.814Z,55
2018-08-25T08:02:49.457Z,40
2018-08-25T08:03:58.098Z,30
2018-08-25T08:05:06.745Z,25
2018-08-25T08:06:15.392Z,20
2018-08-25T08:07:24.303Z,20
2018-08-25T08:08:33.476Z,25
2018-08-25T08:09:42.127Z,25
2018-08-25T08:10:50.769Z,20
2018-08-25T08:11:59.959Z,25
2018-08-25T08:13:08.951Z,50
2018-08-25T08:14:17.861Z,70
2018-08-25T08:15:26.498Z,80
2018-08-25T08:16:35.150Z,55
2018-08-25T08:17:43.784Z,85
2018-08-25T08:18:52.688Z,130
2018-08-25T08:20:01.332Z,180
2018-08-25T08:21:09.983Z,190
2018-08-25T08:22:18.625Z,175
2018-08-25T08:23:27.265Z,220
2018-08-25T08:24:36.168Z,305
2018-08-25T08:25:44.808Z,320
2018-08-25T08:26:53.722Z,345
2018-08-25T08:28:02.366Z,360
2018-08-25T08:29:11.010Z,365
2018-08-25T08:30:19.912Z,355
2018-08-25T08:31:28.564Z,345
2018-08-25T08:32:37.202Z,325
2018-08-25T08:33:45.853Z,290
2018-08-25T08:34:54.484Z,290
2018-08-25T08:36:03.139Z,275
2018-08-25T08:37:11.777Z,265
2018-08-25T08:38:20.426Z,270
2018-08-25T08:39:29.077Z,240
2018-08-25T08:40:37.708Z,300
2018-08-25T08:41:46.358Z,340
2018-08-25T08:42:55.006Z,375
2018-08-25T08:44:03.653Z,400
2018-08-25T08:45:12.284Z,330
2018-08-25T08:46:20.932Z,265
2018-08-25T08:47:29.934Z,195
2018-08-25T08:48:38.554Z,120
2018-08-25T08:49:51.988Z,75
2018-08-25T08:51:00.591Z,70
2018-08-25T08:52:09.511Z,65
2018-08-25T08:53:18.420Z,65
2018-08-25T08:54:27.331Z,65
2018-08-25T08:55:35.975Z,100
2018-08-25T08:56:44.617Z,150
2018-08-25T08:57:53.267Z,175
2018-08-25T08:59:02.172Z,170
2018-08-25T09:00:10.823Z,165
2018-08-25T09:01:19.736Z,165
2018-08-25T09:02:28.379Z,175
2018-08-25T09:03:37.028Z,170
2018-08-25T09:04:45.934Z,160
2018-08-25T09:05:54.580Z,160
2018-08-25T09:07:03.490Z,165
2018-08-25T09:08:12.141Z,170
2018-08-25T09:09:20.785Z,205
2018-08-25T09:10:29.433Z,235
2018-08-25T09:11:38.085Z,240
2018-08-25T09:12:46.986Z,235
2018-08-25T09:13:55.633Z,240
2018-08-25T09:15:04.273Z,235
2018-08-25T09:16:12.915Z,240
2018-08-25T09:17:21.836Z,230
2018-08-25T09:18:30.478Z,170
2018-08-25T09:19:39.386Z,160
2018-08-25T09:20:48.032Z,165
2018-08-25T09:21:56.673Z,215
2018-08-25T09:23:05.315Z,230
2018-08-25T09:24:13.960Z,250
2018-08-25T09:25:22.605Z,250
2018-08-25T09:26:31.764Z,245
2018-08-25T09:27:40.409Z,240
2018-08-25T09:28:49.052Z,230
2018-08-25T09:29:57.703Z,250
2018-08-25T09:31:06.337Z,290
2018-08-25T09:32:14.988Z,390
2018-08-25T09:33:23.627Z,335
2018-08-25T09:34:32.278Z,325
2018-08-25T09:35:40.950Z,275
2018-08-25T09:36:50.058Z,215
2018-08-25T09:37:58.514Z,170
2018-08-25T09:39:07.157Z,210
2018-08-25T09:40:15.808Z,170
2018-08-25T09:41:24.452Z,190
2018-08-25T09:42:33.097Z,205
2018-08-25T09:43:42.007Z,170
2018-08-25T09:44:50.921Z,145
2018-08-25T09:45:59.567Z,120
2018-08-25T09:47:08.345Z,150
2018-08-25T09:48:16.887Z,130
2018-08-25T09:49:25.767Z,130
2018-08-25T09:50:34.415Z,165
2018-08-25T09:51:43.054Z,160
2018-08-25T09:52:51.704Z,180
2018-08-25T09:54:00.346Z,150
2018-08-25T09:55:08.992Z,230
2018-08-25T09:56:17.642Z,205
2018-08-25T09:57:26.286Z,180
2018-08-25T09:58:34.930Z,175
2018-08-25T09:59:43.573Z,190
2018-08-25T10:00:52.219Z,225
2018-08-25T10:02:00.858Z,195
2018-08-25T10:03:09.508Z,180
2018-08-25T10:04:18.153Z,185
2018-08-25T10:05:27.241Z,130
2018-08-25T10:06:35.873Z,185
2018-08-25T10:07:44.521Z,200
2018-08-25T10:08:53.169Z,185
2018-08-25T10:10:02.083Z,130
2018-08-25T10:11:10.721Z,225
2018-08-25T10:12:19.636Z,295
2018-08-25T10:13:28.549Z,260
2018-08-25T10:14:37.196Z,215
2018-08-25T10:15:45.843Z,210
2018-08-25T10:16:54.566Z,305
2018-08-25T10:18:03.398Z,270
2018-08-25T10:19:12.043Z,215
2018-08-25T10:20:20.694Z,205
2018-08-25T10:21:29.339Z,240
2018-08-25T10:22:37.983Z,250
2018-08-25T10:23:46.628Z,255
2018-08-25T10:24:55.814Z,220
2018-08-25T10:26:04.716Z,215
2018-08-25T10:27:13.632Z,160
2018-08-25T10:28:22.277Z,220
2018-08-25T10:29:30.926Z,225
2018-08-25T10:30:39.567Z,260
2018-08-25T10:31:48.212Z,275
2018-08-25T10:32:56.855Z,290
2018-08-25T10:34:05.501Z,225
2018-08-25T10:35:14.148Z,285
2018-08-25T10:36:22.796Z,360
2018-08-25T10:37:31.442Z,305
2018-08-25T10:38:40.352Z,350
2018-08-25T10:39:49.001Z,315
2018-08-25T10:40:57.646Z,345
2018-08-25T10:42:06.319Z,365
2018-08-25T10:43:15.221Z,300
2018-08-25T10:44:24.151Z,350
2018-08-25T10:45:32.792Z,235
2018-08-25T10:46:41.443Z,280
2018-08-25T10:47:50.342Z,200
2018-08-25T10:48:58.989Z,305
2018-08-25T10:50:07.910Z,290
2018-08-25T10:51:16.561Z,285
2018-08-25T10:52:25.472Z,255
2018-08-25T10:53:34.109Z,250
2018-08-25T10:54:42.760Z,255
2018-08-25T10:55:51.406Z,255
2018-08-25T10:57:00.071Z,260
2018-08-25T10:58:08.705Z,225
2018-08-25T10:59:17.357Z,225
2018-08-25T11:00:26.159Z,160
2018-08-25T11:01:34.665Z,285
2018-08-25T11:02:43.560Z,240
2018-08-25T11:03:52.208Z,210
2018-08-25T11:05:00.854Z,170
2018-08-25T11:06:09.512Z,140
2018-08-25T11:07:18.417Z,125
2018-08-25T11:08:27.063Z,145
2018-08-25T11:09:35.704Z,135
2018-08-25T11:10:44.348Z,235
2018-08-25T11:11:53.273Z,260
2018-08-25T11:13:01.913Z,170
2018-08-25T11:14:10.831Z,190
2018-08-25T11:15:19.464Z,270
2018-08-25T11:16:28.150Z,265
2018-08-25T11:17:36.761Z,275
2018-08-25T11:18:45.679Z,175
2018-08-25T11:19:54.316Z,160
2018-08-25T11:21:03.236Z,230
2018-08-25T11:22:11.882Z,230
2018-08-25T11:23:20.525Z,225
2018-08-25T11:24:29.433Z,260
2018-08-25T11:25:38.082Z,270
2018-08-25T11:26:46.729Z,255
2018-08-25T11:27:55.382Z,165
2018-08-25T11:29:04.049Z,250
2018-08-25T11:30:12.670Z,250
2018-08-25T11:31:21.320Z,215
2018-08-25T11:32:29.960Z,155
2018-08-25T11:33:38.618Z,185
2018-08-25T11:34:47.253Z,220
2018-08-25T11:35:55.901Z,215
2018-08-25T11:37:05.081Z,225
2018-08-25T11:38:13.755Z,230
2018-08-25T11:39:22.371Z,235
2018-08-25T11:40:31.021Z,240
2018-08-25T11:41:39.934Z,240
2018-08-25T11:42:48.840Z,270
2018-08-25T11:43:57.502Z,260
2018-08-25T11:45:06.134Z,280
2018-08-25T11:46:14.783Z,325
2018-08-25T11:47:23.431Z,345
2018-08-25T11:48:32.077Z,365
2018-08-25T11:49:40.722Z,335
2018-08-25T11:50:49.637Z,300
2018-08-25T11:51:58.822Z,305
2018-08-25T11:53:07.466Z,310
2018-08-25T11:54:16.112Z,305
2018-08-25T11:55:25.028Z,275
2018-08-25T11:56:33.678Z,270
2018-08-25T11:57:42.320Z,275
2018-08-25T11:58:50.972Z,200
2018-08-25T11:59:59.613Z,275
2018-08-25T12:01:08.265Z,285
2018-08-25T12:02:17.319Z,285
2018-08-25T12:03:26.282Z,255
2018-08-25T12:04:34.875Z,255
2018-08-25T12:05:43.520Z,245
2018-08-25T12:06:52.171Z,250
2018-08-25T12:08:00.816Z,280
2018-08-25T12:09:09.463Z,285
2018-08-25T12:10:18.105Z,300
2018-08-25T12:11:26.756Z,325
2018-08-25T12:12:35.411Z,295
2018-08-25T12:13:44.058Z,310
2018-08-25T12:14:52.700Z,315
2018-08-25T12:16:01.354Z,315
2018-08-25T12:17:10.521Z,310
2018-08-25T12:18:19.171Z,230
2018-08-25T12:19:28.078Z,250
2018-08-25T12:20:36.989Z,320
2018-08-25T12:21:45.636Z,225
2018-08-25T12:22:54.289Z,235
2018-08-25T12:24:03.045Z,230
2018-08-25T12:25:11.579Z,225
2018-08-25T12:26:20.228Z,235
2018-08-25T12:27:29.142Z,270
2018-08-25T12:28:38.056Z,290
2018-08-25T12:29:46.699Z,310
2018-08-25T12:30:55.351Z,325
2018-08-25T12:32:04.043Z,315
2018-08-25T12:33:12.652Z,315
2018-08-25T12:34:21.295Z,305
2018-08-25T12:35:29.949Z,280
2018-08-25T12:36:38.864Z,255
2018-08-25T12:37:47.779Z,255
2018-08-25T12:38:56.430Z,240
2018-08-25T12:40:05.071Z,330
2018-08-25T12:41:13.718Z,380
2018-08-25T12:42:22.366Z,400
2018-08-25T12:43:31.109Z,395
2018-08-25T12:44:39.669Z,340
2018-08-25T12:45:48.321Z,325
2018-08-25T12:46:56.958Z,260
2018-08-25T12:48:05.617Z,270
2018-08-25T12:49:14.533Z,270
2018-08-25T12:50:23.185Z,255
2018-08-25T12:51:31.848Z,330
2018-08-25T12:52:40.482Z,220
2018-08-25T12:53:49.128Z,290
2018-08-25T12:54:57.827Z,225
2018-08-25T12:56:06.686Z,230
2018-08-25T12:57:15.336Z,200
2018-08-25T12:58:23.994Z,250
2018-08-25T12:59:32.642Z,260
2018-08-25T13:00:41.292Z,295
2018-08-25T13:01:49.987Z,355
2018-08-25T13:02:58.854Z,275
2018-08-25T13:04:07.499Z,270
2018-08-25T13:05:16.417Z,265
2018-08-25T13:06:25.053Z,210
2018-08-25T13:07:33.726Z,165
2018-08-25T13:08:42.639Z,145
2018-08-25T13:09:51.296Z,135
2018-08-25T13:10:59.936Z,120
2018-08-25T13:12:08.586Z,80
2018-08-25T13:13:17.235Z,75
2018-08-25T13:14:25.898Z,80
2018-08-25T13:15:34.537Z,70
2018-08-25T13:16:43.188Z,55
2018-08-25T13:17:51.828Z,45
2018-08-25T13:19:00.971Z,40
2018-08-25T13:20:09.489Z,40
2018-08-25T13:21:18.129Z,40
2018-08-25T13:22:26.781Z,35
2018-08-25T13:23:35.834Z,30
2018-08-25T13:24:44.488Z,30
2018-08-25T13:25:53.132Z,30
2018-08-25T13:27:02.041Z,35
2018-08-25T13:28:10.676Z,35
2018-08-25T13:29:19.330Z,35
2018-08-25T13:30:28.245Z,35
2018-08-25T13:31:36.891Z,35
2018-08-25T13:32:45.523Z,40
2018-08-25T13:33:54.169Z,45
2018-08-25T13:35:03.086Z,50
2018-08-25T13:36:11.727Z,50
2018-08-25T13:37:20.375Z,55
2018-08-25T13:38:29.010Z,55
2018-08-25T13:39:37.656Z,55
2018-08-25T13:40:46.318Z,60
2018-08-25T13:41:55.482Z,65
2018-08-25T13:43:04.133Z,65
2018-08-25T13:44:12.853Z,70
2018-08-25T13:45:21.794Z,80
2018-08-25T13:46:30.408Z,85
2018-08-25T13:47:39.059Z,95
2018-08-25T13:48:47.968Z,105
2018-08-25T13:49:56.613Z,115
2018-08-25T13:51:05.634Z,120
2018-08-25T13:52:14.231Z,125
2018-08-25T13:53:23.149Z,135
2018-08-25T13:54:31.792Z,145
2018-08-25T13:55:40.442Z,165
2018-08-25T13:56:49.338Z,180
2018-08-25T13:57:57.989Z,190
2018-08-25T13:59:06.896Z,195
2018-08-25T14:00:15.542Z,205
2018-08-25T14:01:24.177Z,210
2018-08-25T14:02:33.089Z,205
2018-08-25T14:03:41.775Z,205
2018-08-25T14:04:50.385Z,200
2018-08-25T14:05:59.020Z,195
2018-08-25T14:07:07.667Z,185
2018-08-25T14:08:16.845Z,180
2018-08-25T14:09:25.590Z,165
2018-08-25T14:10:34.230Z,155
2018-08-25T14:11:43.133Z,155
2018-08-25T14:12:51.777Z,150
2018-08-25T14:14:00.422Z,150
2018-08-25T14:15:09.075Z,150
2018-08-25T14:16:17.925Z,165
2018-08-25T14:17:26.885Z,175
2018-08-25T14:18:35.519Z,190
2018-08-25T14:19:44.174Z,200
2018-08-25T14:20:52.819Z,210
2018-08-25T14:22:01.465Z,220
2018-08-25T14:23:10.357Z,230
2018-08-25T14:24:19.010Z,235
2018-08-25T14:25:27.918Z,235
2018-08-25T14:26:36.564Z,240
2018-08-25T14:27:45.200Z,240
2018-08-25T14:28:53.935Z,245
2018-08-25T14:30:02.498Z,245
2018-08-25T14:31:11.146Z,250
2018-08-25T14:32:19.793Z,250
2018-08-25T14:33:28.430Z,255
2018-08-25T14:34:37.079Z,265
2018-08-25T14:35:45.720Z,270
2018-08-25T14:36:54.649Z,275
2018-08-25T14:38:03.288Z,265
2018-08-25T14:39:11.934Z,250
2018-08-25T14:40:20.841Z,235
2018-08-25T14:41:29.760Z,220
2018-08-25T14:42:38.396Z,210
2018-08-25T14:43:47.042Z,200
2018-08-25T14:44:55.683Z,200
2018-08-25T14:46:04.333Z,190
2018-08-25T14:47:13.303Z,175
2018-08-25T14:48:21.923Z,185
2018-08-25T14:49:30.569Z,170
2018-08-25T14:50:39.210Z,145
2018-08-25T14:51:47.858Z,135
2018-08-25T14:52:56.505Z,130
2018-08-25T14:54:05.154Z,120
2018-08-25T14:55:14.058Z,110
2018-08-25T14:56:22.707Z,105
2018-08-25T14:57:31.353Z,105
2018-08-25T14:58:39.999Z,100
2018-08-25T14:59:48.645Z,105
2018-08-25T15:00:57.461Z,105
2018-08-25T15:02:06.226Z,105
2018-08-25T15:03:14.868Z,115
2018-08-25T15:04:23.517Z,115
2018-08-25T15:05:32.163Z,120
2018-08-25T15:06:40.810Z,115
2018-08-25T15:07:49.470Z,110
2018-08-25T15:08:58.363Z,110
2018-08-25T15:10:07.011Z,105
2018-08-25T15:11:15.652Z,110
2018-08-25T15:12:24.296Z,110
2018-08-25T15:13:33.381Z,105
2018-08-25T15:14:42.020Z,110
2018-08-25T15:15:50.663Z,105
2018-08-25T15:16:59.308Z,120
2018-08-25T15:18:07.961Z,125
2018-08-25T15:19:16.599Z,120
2018-08-25T15:20:25.246Z,105
2018-08-25T15:21:33.889Z,115
2018-08-25T15:22:42.541Z,145
2018-08-25T15:23:51.185Z,170
2018-08-25T15:24:59.829Z,150
2018-08-25T15:26:08.469Z,155
2018-08-25T15:27:17.148Z,115
2018-08-25T15:28:25.760Z,95
2018-08-25T15:29:34.408Z,110
2018-08-25T15:30:43.050Z,105
2018-08-25T15:31:51.689Z,90
2018-08-25T15:33:00.338Z,90
2018-08-25T15:34:08.980Z,95
2018-08-25T15:35:17.890Z,90
2018-08-25T15:36:26.530Z,90
2018-08-25T15:37:35.448Z,90
2018-08-25T15:38:44.090Z,90
2018-08-25T15:39:52.995Z,90
2018-08-25T15:41:01.892Z,100
2018-08-25T15:42:10.540Z,110
2018-08-25T15:43:19.189Z,110
2018-08-25T15:44:27.835Z,120
2018-08-25T15:45:36.742Z,125
2018-08-25T15:46:45.379Z,130
2018-08-25T15:47:54.032Z,135
2018-08-25T15:49:02.674Z,135
2018-08-25T15:50:11.330Z,120
2018-08-25T15:51:19.966Z,120
2018-08-25T15:52:28.618Z,120
2018-08-25T15:53:37.260Z,115
2018-08-25T15:54:45.912Z,105
2018-08-25T15:55:54.547Z,95
2018-08-25T15:57:03.192Z,90
2018-08-25T15:58:11.836Z,95
2018-08-25T15:59:20.493Z,95
2018-08-25T16:00:29.134Z,95
2018-08-25T16:01:37.777Z,85
2018-08-25T16:02:46.417Z,80
2018-08-25T16:03:55.327Z,70
2018-08-25T16:05:04.243Z,70
2018-08-25T16:06:13.303Z,70
2018-08-25T16:07:22.221Z,70
2018-08-25T16:08:30.862Z,70
2018-08-25T16:09:39.782Z,75
2018-08-25T16:10:48.421Z,75
2018-08-25T16:11:57.453Z,75
2018-08-25T16:13:05.991Z,75